<?xml version="1.0" encoding="UTF-8"?>
<gpx version="1.0" creator="Gaggle https://github.com/geeksville/Gaggle" xmlns:xsi="http://www.w3.org/2001/XMLSchema-instance" xmlns="http://www.topografix.com/GPX/1/0" xsi:schemaLocation="http://www.topografix.com/GPX/1/0 http://www.topografix.com/GPX/1/0/gpx.xsd">
<trk>
	<name>Jorgev's flight</name>
	<desc>
	Pilot name:	Jorgev
	Pilot ID:	
	Glider type:	Rush 2
	</desc>
	<trkseg>
		<trkpt lat="42.874305" lon="-5.373919">
			<ele>1619.000000</ele>
		<time>2015-12-05T03:14:51Z</time>
		</trkpt>

		<trkpt lat="42.874247" lon="-5.373901">
			<ele>1605.000000</ele>
		<time>2015-12-05T03:15:06Z</time>
		</trkpt>

		<trkpt lat="42.874275" lon="-5.373896">
			<ele>1612.000000</ele>
		<time>2015-12-05T03:15:10Z</time>
		</trkpt>

		<trkpt lat="42.874304" lon="-5.373907">
			<ele>1613.000000</ele>
		<time>2015-12-05T03:15:18Z</time>
		</trkpt>

		<trkpt lat="42.874328" lon="-5.373924">
			<ele>1619.000000</ele>
		<time>2015-12-05T03:17:43Z</time>
		</trkpt>

		<trkpt lat="42.874301" lon="-5.373935">
			<ele>1623.000000</ele>
		<time>2015-12-05T03:18:54Z</time>
		</trkpt>

		<trkpt lat="42.874272" lon="-5.373956">
			<ele>1624.000000</ele>
		<time>2015-12-05T03:19:29Z</time>
		</trkpt>

		<trkpt lat="42.874239" lon="-5.373962">
			<ele>1624.000000</ele>
		<time>2015-12-05T03:19:32Z</time>
		</trkpt>

		<trkpt lat="42.874243" lon="-5.373998">
			<ele>1620.000000</ele>
		<time>2015-12-05T03:20:31Z</time>
		</trkpt>

		<trkpt lat="42.874214" lon="-5.373994">
			<ele>1616.000000</ele>
		<time>2015-12-05T03:20:46Z</time>
		</trkpt>

		<trkpt lat="42.874186" lon="-5.373991">
			<ele>1618.000000</ele>
		<time>2015-12-05T03:22:30Z</time>
		</trkpt>

		<trkpt lat="42.874170" lon="-5.374024">
			<ele>1619.000000</ele>
		<time>2015-12-05T03:23:19Z</time>
		</trkpt>

		<trkpt lat="42.874104" lon="-5.374066">
			<ele>1620.000000</ele>
		<time>2015-12-05T03:23:22Z</time>
		</trkpt>

		<trkpt lat="42.873873" lon="-5.374065">
			<ele>1613.000000</ele>
		<time>2015-12-05T03:23:25Z</time>
		</trkpt>

		<trkpt lat="42.873683" lon="-5.374058">
			<ele>1613.000000</ele>
		<time>2015-12-05T03:23:28Z</time>
		</trkpt>

		<trkpt lat="42.873555" lon="-5.374120">
			<ele>1614.000000</ele>
		<time>2015-12-05T03:23:31Z</time>
		</trkpt>

		<trkpt lat="42.873402" lon="-5.374089">
			<ele>1612.000000</ele>
		<time>2015-12-05T03:23:34Z</time>
		</trkpt>

		<trkpt lat="42.873318" lon="-5.373832">
			<ele>1613.000000</ele>
		<time>2015-12-05T03:23:37Z</time>
		</trkpt>

		<trkpt lat="42.873359" lon="-5.373433">
			<ele>1614.000000</ele>
		<time>2015-12-05T03:23:40Z</time>
		</trkpt>

		<trkpt lat="42.873486" lon="-5.373081">
			<ele>1615.000000</ele>
		<time>2015-12-05T03:23:43Z</time>
		</trkpt>

		<trkpt lat="42.873591" lon="-5.372709">
			<ele>1614.000000</ele>
		<time>2015-12-05T03:23:46Z</time>
		</trkpt>

		<trkpt lat="42.873707" lon="-5.372349">
			<ele>1615.000000</ele>
		<time>2015-12-05T03:23:49Z</time>
		</trkpt>

		<trkpt lat="42.873823" lon="-5.372005">
			<ele>1613.000000</ele>
		<time>2015-12-05T03:23:52Z</time>
		</trkpt>

		<trkpt lat="42.873818" lon="-5.371617">
			<ele>1606.000000</ele>
		<time>2015-12-05T03:23:55Z</time>
		</trkpt>

		<trkpt lat="42.873749" lon="-5.371376">
			<ele>1599.000000</ele>
		<time>2015-12-05T03:23:58Z</time>
		</trkpt>

		<trkpt lat="42.873625" lon="-5.371227">
			<ele>1595.000000</ele>
		<time>2015-12-05T03:24:01Z</time>
		</trkpt>

		<trkpt lat="42.873521" lon="-5.371249">
			<ele>1590.000000</ele>
		<time>2015-12-05T03:24:04Z</time>
		</trkpt>

		<trkpt lat="42.873440" lon="-5.371410">
			<ele>1588.000000</ele>
		<time>2015-12-05T03:24:07Z</time>
		</trkpt>

		<trkpt lat="42.873438" lon="-5.371660">
			<ele>1585.000000</ele>
		<time>2015-12-05T03:24:10Z</time>
		</trkpt>

		<trkpt lat="42.873350" lon="-5.371908">
			<ele>1581.000000</ele>
		<time>2015-12-05T03:24:13Z</time>
		</trkpt>

		<trkpt lat="42.873177" lon="-5.371914">
			<ele>1578.000000</ele>
		<time>2015-12-05T03:24:16Z</time>
		</trkpt>

		<trkpt lat="42.873047" lon="-5.371744">
			<ele>1576.000000</ele>
		<time>2015-12-05T03:24:19Z</time>
		</trkpt>

		<trkpt lat="42.872962" lon="-5.371492">
			<ele>1574.000000</ele>
		<time>2015-12-05T03:24:22Z</time>
		</trkpt>

		<trkpt lat="42.872836" lon="-5.371271">
			<ele>1568.000000</ele>
		<time>2015-12-05T03:24:25Z</time>
		</trkpt>

		<trkpt lat="42.872715" lon="-5.370999">
			<ele>1566.000000</ele>
		<time>2015-12-05T03:24:28Z</time>
		</trkpt>

		<trkpt lat="42.872651" lon="-5.370742">
			<ele>1562.000000</ele>
		<time>2015-12-05T03:24:31Z</time>
		</trkpt>

		<trkpt lat="42.872530" lon="-5.370494">
			<ele>1563.000000</ele>
		<time>2015-12-05T03:24:34Z</time>
		</trkpt>

		<trkpt lat="42.872430" lon="-5.370286">
			<ele>1561.000000</ele>
		<time>2015-12-05T03:24:37Z</time>
		</trkpt>

		<trkpt lat="42.872410" lon="-5.369959">
			<ele>1560.000000</ele>
		<time>2015-12-05T03:24:40Z</time>
		</trkpt>

		<trkpt lat="42.872535" lon="-5.369632">
			<ele>1561.000000</ele>
		<time>2015-12-05T03:24:43Z</time>
		</trkpt>

		<trkpt lat="42.872686" lon="-5.369292">
			<ele>1560.000000</ele>
		<time>2015-12-05T03:24:46Z</time>
		</trkpt>

		<trkpt lat="42.872635" lon="-5.368949">
			<ele>1560.000000</ele>
		<time>2015-12-05T03:24:49Z</time>
		</trkpt>

		<trkpt lat="42.872505" lon="-5.368853">
			<ele>1560.000000</ele>
		<time>2015-12-05T03:24:52Z</time>
		</trkpt>

		<trkpt lat="42.872435" lon="-5.368978">
			<ele>1559.000000</ele>
		<time>2015-12-05T03:24:55Z</time>
		</trkpt>

		<trkpt lat="42.872483" lon="-5.369169">
			<ele>1559.000000</ele>
		<time>2015-12-05T03:24:58Z</time>
		</trkpt>

		<trkpt lat="42.872553" lon="-5.369358">
			<ele>1556.000000</ele>
		<time>2015-12-05T03:25:01Z</time>
		</trkpt>

		<trkpt lat="42.872656" lon="-5.369604">
			<ele>1555.000000</ele>
		<time>2015-12-05T03:25:04Z</time>
		</trkpt>

		<trkpt lat="42.872730" lon="-5.369792">
			<ele>1554.000000</ele>
		<time>2015-12-05T03:25:07Z</time>
		</trkpt>

		<trkpt lat="42.872665" lon="-5.369914">
			<ele>1552.000000</ele>
		<time>2015-12-05T03:25:10Z</time>
		</trkpt>

		<trkpt lat="42.872521" lon="-5.369856">
			<ele>1554.000000</ele>
		<time>2015-12-05T03:25:13Z</time>
		</trkpt>

		<trkpt lat="42.872433" lon="-5.369650">
			<ele>1558.000000</ele>
		<time>2015-12-05T03:25:16Z</time>
		</trkpt>

		<trkpt lat="42.872446" lon="-5.369342">
			<ele>1557.000000</ele>
		<time>2015-12-05T03:25:19Z</time>
		</trkpt>

		<trkpt lat="42.872438" lon="-5.369021">
			<ele>1552.000000</ele>
		<time>2015-12-05T03:25:22Z</time>
		</trkpt>

		<trkpt lat="42.872314" lon="-5.368814">
			<ele>1548.000000</ele>
		<time>2015-12-05T03:25:25Z</time>
		</trkpt>

		<trkpt lat="42.872174" lon="-5.368893">
			<ele>1544.000000</ele>
		<time>2015-12-05T03:25:28Z</time>
		</trkpt>

		<trkpt lat="42.872037" lon="-5.368826">
			<ele>1545.000000</ele>
		<time>2015-12-05T03:25:31Z</time>
		</trkpt>

		<trkpt lat="42.871982" lon="-5.368637">
			<ele>1543.000000</ele>
		<time>2015-12-05T03:25:34Z</time>
		</trkpt>

		<trkpt lat="42.871933" lon="-5.368280">
			<ele>1540.000000</ele>
		<time>2015-12-05T03:25:37Z</time>
		</trkpt>

		<trkpt lat="42.871929" lon="-5.367941">
			<ele>1542.000000</ele>
		<time>2015-12-05T03:25:40Z</time>
		</trkpt>

		<trkpt lat="42.871968" lon="-5.367666">
			<ele>1541.000000</ele>
		<time>2015-12-05T03:25:43Z</time>
		</trkpt>

		<trkpt lat="42.871965" lon="-5.367396">
			<ele>1541.000000</ele>
		<time>2015-12-05T03:25:46Z</time>
		</trkpt>

		<trkpt lat="42.871831" lon="-5.367205">
			<ele>1541.000000</ele>
		<time>2015-12-05T03:25:49Z</time>
		</trkpt>

		<trkpt lat="42.871672" lon="-5.367237">
			<ele>1542.000000</ele>
		<time>2015-12-05T03:25:52Z</time>
		</trkpt>

		<trkpt lat="42.871547" lon="-5.367426">
			<ele>1542.000000</ele>
		<time>2015-12-05T03:25:55Z</time>
		</trkpt>

		<trkpt lat="42.871489" lon="-5.367717">
			<ele>1542.000000</ele>
		<time>2015-12-05T03:25:58Z</time>
		</trkpt>

		<trkpt lat="42.871565" lon="-5.368048">
			<ele>1543.000000</ele>
		<time>2015-12-05T03:26:01Z</time>
		</trkpt>

		<trkpt lat="42.871750" lon="-5.368317">
			<ele>1541.000000</ele>
		<time>2015-12-05T03:26:04Z</time>
		</trkpt>

		<trkpt lat="42.871971" lon="-5.368623">
			<ele>1541.000000</ele>
		<time>2015-12-05T03:26:07Z</time>
		</trkpt>

		<trkpt lat="42.872024" lon="-5.368956">
			<ele>1542.000000</ele>
		<time>2015-12-05T03:26:10Z</time>
		</trkpt>

		<trkpt lat="42.871920" lon="-5.369217">
			<ele>1540.000000</ele>
		<time>2015-12-05T03:26:13Z</time>
		</trkpt>

		<trkpt lat="42.871703" lon="-5.369214">
			<ele>1537.000000</ele>
		<time>2015-12-05T03:26:16Z</time>
		</trkpt>

		<trkpt lat="42.871540" lon="-5.369071">
			<ele>1530.000000</ele>
		<time>2015-12-05T03:26:19Z</time>
		</trkpt>

		<trkpt lat="42.871443" lon="-5.368829">
			<ele>1526.000000</ele>
		<time>2015-12-05T03:26:22Z</time>
		</trkpt>

		<trkpt lat="42.871420" lon="-5.368611">
			<ele>1516.000000</ele>
		<time>2015-12-05T03:26:25Z</time>
		</trkpt>

		<trkpt lat="42.871332" lon="-5.368393">
			<ele>1514.000000</ele>
		<time>2015-12-05T03:26:28Z</time>
		</trkpt>

		<trkpt lat="42.871234" lon="-5.368198">
			<ele>1512.000000</ele>
		<time>2015-12-05T03:26:31Z</time>
		</trkpt>

		<trkpt lat="42.871127" lon="-5.368076">
			<ele>1508.000000</ele>
		<time>2015-12-05T03:26:34Z</time>
		</trkpt>

		<trkpt lat="42.870964" lon="-5.367999">
			<ele>1500.000000</ele>
		<time>2015-12-05T03:26:37Z</time>
		</trkpt>

		<trkpt lat="42.870767" lon="-5.368048">
			<ele>1497.000000</ele>
		<time>2015-12-05T03:26:40Z</time>
		</trkpt>

		<trkpt lat="42.870604" lon="-5.368205">
			<ele>1494.000000</ele>
		<time>2015-12-05T03:26:43Z</time>
		</trkpt>

		<trkpt lat="42.870449" lon="-5.368406">
			<ele>1495.000000</ele>
		<time>2015-12-05T03:26:46Z</time>
		</trkpt>

		<trkpt lat="42.870272" lon="-5.368537">
			<ele>1493.000000</ele>
		<time>2015-12-05T03:26:49Z</time>
		</trkpt>

		<trkpt lat="42.870055" lon="-5.368501">
			<ele>1493.000000</ele>
		<time>2015-12-05T03:26:52Z</time>
		</trkpt>

		<trkpt lat="42.869899" lon="-5.368341">
			<ele>1490.000000</ele>
		<time>2015-12-05T03:26:55Z</time>
		</trkpt>

		<trkpt lat="42.869684" lon="-5.368320">
			<ele>1483.000000</ele>
		<time>2015-12-05T03:26:58Z</time>
		</trkpt>

		<trkpt lat="42.869474" lon="-5.368360">
			<ele>1488.000000</ele>
		<time>2015-12-05T03:27:01Z</time>
		</trkpt>

		<trkpt lat="42.869261" lon="-5.368354">
			<ele>1488.000000</ele>
		<time>2015-12-05T03:27:04Z</time>
		</trkpt>

		<trkpt lat="42.869025" lon="-5.368384">
			<ele>1488.000000</ele>
		<time>2015-12-05T03:27:07Z</time>
		</trkpt>

		<trkpt lat="42.868824" lon="-5.368361">
			<ele>1489.000000</ele>
		<time>2015-12-05T03:27:10Z</time>
		</trkpt>

		<trkpt lat="42.868613" lon="-5.368237">
			<ele>1488.000000</ele>
		<time>2015-12-05T03:27:13Z</time>
		</trkpt>

		<trkpt lat="42.868473" lon="-5.368004">
			<ele>1486.000000</ele>
		<time>2015-12-05T03:27:16Z</time>
		</trkpt>

		<trkpt lat="42.868370" lon="-5.367723">
			<ele>1485.000000</ele>
		<time>2015-12-05T03:27:19Z</time>
		</trkpt>

		<trkpt lat="42.868330" lon="-5.367416">
			<ele>1482.000000</ele>
		<time>2015-12-05T03:27:22Z</time>
		</trkpt>

		<trkpt lat="42.868274" lon="-5.367123">
			<ele>1477.000000</ele>
		<time>2015-12-05T03:27:25Z</time>
		</trkpt>

		<trkpt lat="42.868205" lon="-5.366837">
			<ele>1477.000000</ele>
		<time>2015-12-05T03:27:28Z</time>
		</trkpt>

		<trkpt lat="42.868137" lon="-5.366543">
			<ele>1478.000000</ele>
		<time>2015-12-05T03:27:31Z</time>
		</trkpt>

		<trkpt lat="42.868111" lon="-5.366265">
			<ele>1478.000000</ele>
		<time>2015-12-05T03:27:34Z</time>
		</trkpt>

		<trkpt lat="42.868060" lon="-5.365905">
			<ele>1483.000000</ele>
		<time>2015-12-05T03:27:37Z</time>
		</trkpt>

		<trkpt lat="42.868051" lon="-5.365649">
			<ele>1485.000000</ele>
		<time>2015-12-05T03:27:40Z</time>
		</trkpt>

		<trkpt lat="42.868053" lon="-5.365388">
			<ele>1479.000000</ele>
		<time>2015-12-05T03:27:43Z</time>
		</trkpt>

		<trkpt lat="42.868054" lon="-5.365126">
			<ele>1473.000000</ele>
		<time>2015-12-05T03:27:46Z</time>
		</trkpt>

		<trkpt lat="42.868050" lon="-5.364868">
			<ele>1470.000000</ele>
		<time>2015-12-05T03:27:49Z</time>
		</trkpt>

		<trkpt lat="42.867988" lon="-5.364603">
			<ele>1471.000000</ele>
		<time>2015-12-05T03:27:52Z</time>
		</trkpt>

		<trkpt lat="42.867807" lon="-5.364421">
			<ele>1443.000000</ele>
		<time>2015-12-05T03:27:55Z</time>
		</trkpt>

		<trkpt lat="42.867596" lon="-5.364349">
			<ele>1417.000000</ele>
		<time>2015-12-05T03:27:58Z</time>
		</trkpt>

		<trkpt lat="42.867366" lon="-5.364375">
			<ele>1409.000000</ele>
		<time>2015-12-05T03:28:01Z</time>
		</trkpt>

		<trkpt lat="42.867155" lon="-5.364406">
			<ele>1401.000000</ele>
		<time>2015-12-05T03:28:04Z</time>
		</trkpt>

		<trkpt lat="42.866894" lon="-5.364444">
			<ele>1396.000000</ele>
		<time>2015-12-05T03:28:07Z</time>
		</trkpt>

		<trkpt lat="42.866659" lon="-5.364456">
			<ele>1390.000000</ele>
		<time>2015-12-05T03:28:10Z</time>
		</trkpt>

		<trkpt lat="42.866463" lon="-5.364410">
			<ele>1386.000000</ele>
		<time>2015-12-05T03:28:13Z</time>
		</trkpt>

		<trkpt lat="42.866270" lon="-5.364368">
			<ele>1386.000000</ele>
		<time>2015-12-05T03:28:16Z</time>
		</trkpt>

		<trkpt lat="42.866087" lon="-5.364381">
			<ele>1379.000000</ele>
		<time>2015-12-05T03:28:19Z</time>
		</trkpt>

		<trkpt lat="42.865868" lon="-5.364340">
			<ele>1372.000000</ele>
		<time>2015-12-05T03:28:22Z</time>
		</trkpt>

		<trkpt lat="42.865650" lon="-5.364326">
			<ele>1370.000000</ele>
		<time>2015-12-05T03:28:25Z</time>
		</trkpt>

		<trkpt lat="42.865487" lon="-5.364288">
			<ele>1367.000000</ele>
		<time>2015-12-05T03:28:28Z</time>
		</trkpt>

		<trkpt lat="42.865350" lon="-5.364134">
			<ele>1365.000000</ele>
		<time>2015-12-05T03:28:31Z</time>
		</trkpt>

		<trkpt lat="42.865252" lon="-5.363955">
			<ele>1362.000000</ele>
		<time>2015-12-05T03:28:34Z</time>
		</trkpt>

		<trkpt lat="42.865082" lon="-5.363737">
			<ele>1350.000000</ele>
		<time>2015-12-05T03:28:37Z</time>
		</trkpt>

		<trkpt lat="42.864945" lon="-5.363549">
			<ele>1349.000000</ele>
		<time>2015-12-05T03:28:40Z</time>
		</trkpt>

		<trkpt lat="42.864893" lon="-5.363286">
			<ele>1345.000000</ele>
		<time>2015-12-05T03:28:43Z</time>
		</trkpt>

		<trkpt lat="42.864897" lon="-5.363018">
			<ele>1340.000000</ele>
		<time>2015-12-05T03:28:46Z</time>
		</trkpt>

		<trkpt lat="42.864862" lon="-5.362743">
			<ele>1336.000000</ele>
		<time>2015-12-05T03:28:49Z</time>
		</trkpt>

		<trkpt lat="42.864776" lon="-5.362483">
			<ele>1331.000000</ele>
		<time>2015-12-05T03:28:52Z</time>
		</trkpt>

		<trkpt lat="42.864650" lon="-5.362272">
			<ele>1327.000000</ele>
		<time>2015-12-05T03:28:55Z</time>
		</trkpt>

		<trkpt lat="42.864482" lon="-5.362070">
			<ele>1322.000000</ele>
		<time>2015-12-05T03:28:58Z</time>
		</trkpt>

		<trkpt lat="42.864321" lon="-5.361896">
			<ele>1319.000000</ele>
		<time>2015-12-05T03:29:01Z</time>
		</trkpt>

		<trkpt lat="42.864181" lon="-5.361715">
			<ele>1312.000000</ele>
		<time>2015-12-05T03:29:04Z</time>
		</trkpt>

		<trkpt lat="42.864066" lon="-5.361491">
			<ele>1310.000000</ele>
		<time>2015-12-05T03:29:07Z</time>
		</trkpt>

		<trkpt lat="42.863942" lon="-5.361247">
			<ele>1306.000000</ele>
		<time>2015-12-05T03:29:10Z</time>
		</trkpt>

		<trkpt lat="42.863801" lon="-5.361101">
			<ele>1303.000000</ele>
		<time>2015-12-05T03:29:13Z</time>
		</trkpt>

		<trkpt lat="42.863658" lon="-5.360927">
			<ele>1297.000000</ele>
		<time>2015-12-05T03:29:16Z</time>
		</trkpt>

		<trkpt lat="42.863540" lon="-5.360729">
			<ele>1294.000000</ele>
		<time>2015-12-05T03:29:19Z</time>
		</trkpt>

		<trkpt lat="42.863412" lon="-5.360548">
			<ele>1292.000000</ele>
		<time>2015-12-05T03:29:22Z</time>
		</trkpt>

		<trkpt lat="42.863296" lon="-5.360342">
			<ele>1289.000000</ele>
		<time>2015-12-05T03:29:25Z</time>
		</trkpt>

		<trkpt lat="42.862416" lon="-5.360348">
			<ele>1298.000000</ele>
		<time>2015-12-05T03:29:57Z</time>
		</trkpt>

		<trkpt lat="42.862283" lon="-5.360641">
			<ele>1270.000000</ele>
		<time>2015-12-05T03:30:00Z</time>
		</trkpt>

		<trkpt lat="42.862080" lon="-5.360855">
			<ele>1265.000000</ele>
		<time>2015-12-05T03:30:03Z</time>
		</trkpt>

		<trkpt lat="42.861868" lon="-5.361124">
			<ele>1264.000000</ele>
		<time>2015-12-05T03:30:06Z</time>
		</trkpt>

		<trkpt lat="42.861730" lon="-5.361353">
			<ele>1251.000000</ele>
		<time>2015-12-05T03:30:09Z</time>
		</trkpt>

		<trkpt lat="42.861560" lon="-5.361656">
			<ele>1242.000000</ele>
		<time>2015-12-05T03:30:12Z</time>
		</trkpt>

		<trkpt lat="42.861328" lon="-5.361781">
			<ele>1229.000000</ele>
		<time>2015-12-05T03:30:15Z</time>
		</trkpt>

		<trkpt lat="42.861166" lon="-5.361669">
			<ele>1222.000000</ele>
		<time>2015-12-05T03:30:18Z</time>
		</trkpt>

		<trkpt lat="42.861109" lon="-5.361374">
			<ele>1218.000000</ele>
		<time>2015-12-05T03:30:21Z</time>
		</trkpt>

		<trkpt lat="42.861121" lon="-5.361110">
			<ele>1213.000000</ele>
		<time>2015-12-05T03:30:24Z</time>
		</trkpt>

		<trkpt lat="42.861155" lon="-5.360892">
			<ele>1209.000000</ele>
		<time>2015-12-05T03:30:27Z</time>
		</trkpt>

		<trkpt lat="42.861176" lon="-5.360667">
			<ele>1206.000000</ele>
		<time>2015-12-05T03:30:30Z</time>
		</trkpt>

		<trkpt lat="42.861203" lon="-5.360446">
			<ele>1201.000000</ele>
		<time>2015-12-05T03:30:33Z</time>
		</trkpt>

		<trkpt lat="42.861216" lon="-5.360186">
			<ele>1201.000000</ele>
		<time>2015-12-05T03:30:36Z</time>
		</trkpt>

		<trkpt lat="42.861258" lon="-5.359962">
			<ele>1199.000000</ele>
		<time>2015-12-05T03:30:39Z</time>
		</trkpt>

		<trkpt lat="42.861305" lon="-5.359725">
			<ele>1195.000000</ele>
		<time>2015-12-05T03:30:42Z</time>
		</trkpt>

		<trkpt lat="42.861372" lon="-5.359453">
			<ele>1190.000000</ele>
		<time>2015-12-05T03:30:45Z</time>
		</trkpt>

		<trkpt lat="42.861412" lon="-5.359234">
			<ele>1185.000000</ele>
		<time>2015-12-05T03:30:48Z</time>
		</trkpt>

		<trkpt lat="42.861413" lon="-5.358964">
			<ele>1180.000000</ele>
		<time>2015-12-05T03:30:51Z</time>
		</trkpt>

		<trkpt lat="42.861375" lon="-5.358748">
			<ele>1179.000000</ele>
		<time>2015-12-05T03:30:54Z</time>
		</trkpt>

		<trkpt lat="42.861245" lon="-5.358591">
			<ele>1176.000000</ele>
		<time>2015-12-05T03:30:57Z</time>
		</trkpt>

		<trkpt lat="42.861063" lon="-5.358614">
			<ele>1171.000000</ele>
		<time>2015-12-05T03:31:00Z</time>
		</trkpt>

		<trkpt lat="42.860869" lon="-5.358793">
			<ele>1170.000000</ele>
		<time>2015-12-05T03:31:03Z</time>
		</trkpt>

		<trkpt lat="42.860709" lon="-5.358915">
			<ele>1168.000000</ele>
		<time>2015-12-05T03:31:06Z</time>
		</trkpt>

		<trkpt lat="42.860545" lon="-5.359112">
			<ele>1166.000000</ele>
		<time>2015-12-05T03:31:09Z</time>
		</trkpt>

		<trkpt lat="42.860400" lon="-5.359315">
			<ele>1166.000000</ele>
		<time>2015-12-05T03:31:12Z</time>
		</trkpt>

		<trkpt lat="42.860255" lon="-5.359527">
			<ele>1163.000000</ele>
		<time>2015-12-05T03:31:15Z</time>
		</trkpt>

		<trkpt lat="42.860106" lon="-5.359717">
			<ele>1157.000000</ele>
		<time>2015-12-05T03:31:18Z</time>
		</trkpt>

		<trkpt lat="42.859925" lon="-5.359914">
			<ele>1150.000000</ele>
		<time>2015-12-05T03:31:21Z</time>
		</trkpt>

		<trkpt lat="42.859703" lon="-5.359997">
			<ele>1146.000000</ele>
		<time>2015-12-05T03:31:24Z</time>
		</trkpt>

		<trkpt lat="42.859487" lon="-5.359991">
			<ele>1142.000000</ele>
		<time>2015-12-05T03:31:27Z</time>
		</trkpt>

		<trkpt lat="42.859328" lon="-5.359879">
			<ele>1139.000000</ele>
		<time>2015-12-05T03:31:30Z</time>
		</trkpt>

		<trkpt lat="42.859369" lon="-5.359632">
			<ele>1137.000000</ele>
		<time>2015-12-05T03:31:33Z</time>
		</trkpt>

		<trkpt lat="42.859542" lon="-5.359420">
			<ele>1134.000000</ele>
		<time>2015-12-05T03:31:36Z</time>
		</trkpt>

		<trkpt lat="42.859649" lon="-5.359149">
			<ele>1132.000000</ele>
		<time>2015-12-05T03:31:39Z</time>
		</trkpt>

		<trkpt lat="42.859669" lon="-5.358914">
			<ele>1131.000000</ele>
		<time>2015-12-05T03:31:42Z</time>
		</trkpt>

		<trkpt lat="42.859595" lon="-5.358701">
			<ele>1129.000000</ele>
		<time>2015-12-05T03:31:45Z</time>
		</trkpt>

		<trkpt lat="42.859469" lon="-5.358649">
			<ele>1127.000000</ele>
		<time>2015-12-05T03:31:48Z</time>
		</trkpt>

		<trkpt lat="42.859272" lon="-5.358693">
			<ele>1123.000000</ele>
		<time>2015-12-05T03:31:51Z</time>
		</trkpt>

		<trkpt lat="42.859071" lon="-5.358776">
			<ele>1119.000000</ele>
		<time>2015-12-05T03:31:54Z</time>
		</trkpt>

		<trkpt lat="42.858862" lon="-5.358779">
			<ele>1115.000000</ele>
		<time>2015-12-05T03:31:57Z</time>
		</trkpt>

		<trkpt lat="42.858680" lon="-5.358667">
			<ele>1113.000000</ele>
		<time>2015-12-05T03:32:00Z</time>
		</trkpt>

		<trkpt lat="42.858690" lon="-5.358436">
			<ele>1112.000000</ele>
		<time>2015-12-05T03:32:03Z</time>
		</trkpt>

		<trkpt lat="42.858808" lon="-5.358219">
			<ele>1112.000000</ele>
		<time>2015-12-05T03:32:06Z</time>
		</trkpt>

		<trkpt lat="42.858806" lon="-5.357993">
			<ele>1106.000000</ele>
		<time>2015-12-05T03:32:09Z</time>
		</trkpt>

		<trkpt lat="42.858677" lon="-5.357879">
			<ele>1104.000000</ele>
		<time>2015-12-05T03:32:12Z</time>
		</trkpt>

		<trkpt lat="42.858523" lon="-5.357808">
			<ele>1103.000000</ele>
		<time>2015-12-05T03:32:15Z</time>
		</trkpt>

		<trkpt lat="42.858371" lon="-5.357697">
			<ele>1101.000000</ele>
		<time>2015-12-05T03:32:18Z</time>
		</trkpt>

		<trkpt lat="42.858241" lon="-5.357647">
			<ele>1095.000000</ele>
		<time>2015-12-05T03:32:21Z</time>
		</trkpt>

		<trkpt lat="42.858140" lon="-5.357631">
			<ele>1094.000000</ele>
		<time>2015-12-05T03:32:25Z</time>
		</trkpt>

	</trkseg>
</trk>
</gpx>

